Time;durP1;ratioP1;P1;durP2;ratioP2;P2;SDS_P1;SDS_P2;PMS_P1;PMS_P2;Temp;Humidity;BMP_temperature;BMP_pressure;BME280_temperature;BME280_humidity;BME280_pressure;Samples;Min_cycle;Max_cycle;Signal;HPM_P1;HPM_P2
2022/11/05 00:10:41;;;;;;;2.75;1.65;;;;;;;10.41;72.65;99331.16;4880249;29;20688;-75
2022/11/05 00:18:36;;;;;;;3.00;2.22;;;;;;;10.46;72.46;99343.97;4884160;29;20711;-76
2022/11/05 00:21:02;;;;;;;2.43;1.90;;;;;;;10.47;72.45;99348.28;4881001;29;20241;-75
2022/11/05 00:26:12;;;;;;;1.73;1.63;;;;;;;10.46;72.55;99352.69;4883476;29;20206;-74
2022/11/05 00:28:40;;;;;;;4.43;2.20;;;;;;;10.47;72.74;99358.78;4883521;29;20615;-75
2022/11/05 00:31:11;;;;;;;2.25;1.70;;;;;;;10.48;72.87;99358.69;4885753;29;20206;-75
2022/11/05 00:33:38;;;;;;;3.03;2.13;;;;;;;10.48;72.51;99361.31;4885175;29;20775;-74
2022/11/05 00:36:06;;;;;;;2.75;2.38;;;;;;;10.46;72.64;99354.50;4877833;29;20704;-75
2022/11/05 00:38:32;;;;;;;2.38;2.17;;;;;;;10.45;72.77;99353.66;4885954;29;20215;-75
2022/11/05 00:40:57;;;;;;;2.60;2.22;;;;;;;10.45;72.94;99365.91;4887287;29;20325;-75
2022/11/05 00:46:07;;;;;;;2.53;1.83;;;;;;;10.45;72.90;99360.66;4888266;29;20702;-77
2022/11/05 00:51:17;;;;;;;2.10;1.90;;;;;;;10.46;73.30;99375.50;4888696;29;20199;-77
2022/11/05 00:53:43;;;;;;;5.10;3.07;;;;;;;10.49;73.00;99380.53;4888273;29;20205;-75
2022/11/05 00:56:08;;;;;;;2.60;2.23;;;;;;;10.50;73.28;99379.59;4887649;29;20554;-75
2022/11/05 00:58:34;;;;;;;3.97;2.27;;;;;;;10.50;73.22;99376.94;4887407;29;20555;-75
2022/11/05 01:01:09;;;;;;;3.37;2.30;;;;;;;10.47;73.33;99371.91;4890196;29;20477;-75
2022/11/05 01:03:36;;;;;;;4.05;2.58;;;;;;;10.45;73.46;99384.28;4885855;29;20215;-75
2022/11/05 01:06:14;;;;;;;2.10;2.00;;;;;;;10.42;73.53;99380.09;4887038;29;20317;-75
2022/11/05 01:08:41;;;;;;;2.90;2.03;;;;;;;10.40;73.75;99385.47;4888751;29;20607;-75
2022/11/05 01:11:33;;;;;;;2.40;2.20;;;;;;;10.39;73.82;99381.13;4888273;29;20686;-76
2022/11/05 01:14:11;;;;;;;3.35;2.13;;;;;;;10.38;73.85;99383.88;4886399;29;20211;-75
2022/11/05 01:16:37;;;;;;;3.00;2.70;;;;;;;10.39;73.79;99381.13;4886916;29;20213;-75
2022/11/05 01:19:05;;;;;;;2.20;2.00;;;;;;;10.37;73.84;99383.03;4882543;29;21010;-76
2022/11/05 01:21:30;;;;;;;3.05;2.70;;;;;;;10.36;73.99;99386.59;4883404;29;20791;-75
2022/11/05 01:23:56;;;;;;;2.33;2.13;;;;;;;10.37;74.21;99388.28;4884412;29;20306;-75
2022/11/05 01:26:21;;;;;;;3.50;2.27;;;;;;;10.38;74.18;99387.34;4881862;29;20203;-75
2022/11/05 01:28:55;;;;;;;3.13;2.40;;;;;;;10.40;74.27;99387.25;4896880;29;20735;-75
2022/11/05 01:31:22;;;;;;;3.60;3.00;;;;;;;10.40;74.09;99392.50;4884720;29;20207;-75
2022/11/05 01:33:49;;;;;;;2.40;2.10;;;;;;;10.41;73.94;99395.00;4880502;29;21149;-75
2022/11/05 01:36:15;;;;;;;3.00;2.13;;;;;;;10.43;74.25;99392.28;4882712;29;20215;-75
2022/11/05 01:38:40;;;;;;;3.27;2.17;;;;;;;10.42;74.05;99393.22;4881070;29;20230;-75
2022/11/05 01:41:06;;;;;;;1.80;1.70;;;;;;;10.43;74.10;99396.72;4885379;29;21498;-75
2022/11/05 01:43:48;;;;;;;3.60;2.33;;;;;;;10.41;74.13;99395.00;4883530;29;20214;-75
2022/11/05 01:46:16;;;;;;;3.28;2.45;;;;;;;10.40;74.23;99397.75;4881303;29;20218;-75
2022/11/05 01:48:42;;;;;;;3.13;2.92;;;;;;;10.40;74.14;99409.09;4884747;29;20800;-76
2022/11/05 01:51:12;;;;;;;3.33;2.10;;;;;;;10.41;74.18;99402.06;4883906;29;20309;-76
2022/11/05 01:53:59;;;;;;;2.38;2.20;;;;;;;10.42;74.39;99406.34;4882787;29;20234;-76
2022/11/05 01:56:39;;;;;;;4.35;2.55;;;;;;;10.40;74.46;99401.22;4886582;29;20633;-77
2022/11/05 01:59:10;;;;;;;3.38;2.97;;;;;;;10.39;74.37;99401.31;4882683;29;20237;-76
2022/11/05 02:01:36;;;;;;;7.07;2.72;;;;;;;10.37;74.63;99398.78;4881997;29;20229;-76
2022/11/05 02:04:05;;;;;;;4.30;2.50;;;;;;;10.36;74.64;99396.25;4884874;29;20249;-77
2022/11/05 02:06:35;;;;;;;2.67;1.88;;;;;;;10.33;74.89;99406.97;4880344;29;20648;-76
2022/11/05 02:09:06;;;;;;;4.40;3.88;;;;;;;10.32;74.76;99406.13;4886056;29;20291;-76
2022/11/05 02:11:32;;;;;;;2.55;2.20;;;;;;;10.34;74.94;99406.88;4885581;29;20211;-76
2022/11/05 02:13:58;;;;;;;4.47;3.90;;;;;;;10.35;74.81;99411.16;4880327;29;20743;-76
2022/11/05 02:16:40;;;;;;;2.63;2.42;;;;;;;10.36;74.98;99412.84;4882711;29;20206;-76
2022/11/05 02:19:57;;;;;;;5.63;3.03;;;;;;;10.36;75.13;99410.22;4884200;29;20242;-77
2022/11/05 02:22:40;;;;;;;3.55;2.40;;;;;;;10.35;75.03;99415.59;4878171;29;20716;-77
2022/11/05 02:25:30;;;;;;;2.67;2.15;;;;;;;10.34;75.04;99420.00;4881897;29;20677;-76
2022/11/05 02:28:33;;;;;;;2.85;2.50;;;;;;;10.34;75.24;99425.25;4881172;29;20270;-77
2022/11/05 02:31:01;;;;;;;3.50;2.60;;;;;;;10.34;75.29;99419.13;4899037;29;21284;-76
2022/11/05 02:33:37;;;;;;;3.75;2.92;;;;;;;10.34;75.20;99412.13;4884415;29;20222;-77
2022/11/05 02:36:12;;;;;;;6.25;4.10;;;;;;;10.34;75.18;99413.88;4883368;29;20203;-76
2022/11/05 02:39:05;;;;;;;3.42;3.10;;;;;;;10.32;75.38;99414.00;4882281;29;20242;-77
2022/11/05 02:42:01;;;;;;;3.15;2.85;;;;;;;10.33;75.26;99418.31;4884003;29;20233;-77
2022/11/05 02:44:36;;;;;;;3.15;2.85;;;;;;;10.32;75.28;99416.63;4883162;29;20222;-77
2022/11/05 02:47:22;;;;;;;3.42;2.10;;;;;;;10.34;75.45;99425.25;4881510;29;20261;-76
2022/11/05 02:50:23;;;;;;;4.43;2.80;;;;;;;10.34;75.42;99422.63;4876686;29;20900;-77
2022/11/05 02:53:06;;;;;;;5.88;2.13;;;;;;;10.32;75.45;99424.50;4823630;29;20232;-77
2022/11/05 02:55:43;;;;;;;3.10;2.80;;;;;;;10.30;75.42;99423.75;4893201;29;20241;-76
2022/11/05 02:58:10;;;;;;;3.65;2.38;;;;;;;10.29;75.38;99424.72;4897435;29;20242;-76
2022/11/05 03:00:52;;;;;;;3.00;2.45;;;;;;;10.28;75.66;99427.44;4902007;29;20254;-76
2022/11/05 03:03:30;;;;;;;6.65;2.38;;;;;;;10.26;75.64;99438.00;4903508;29;20273;-77
2022/11/05 03:06:07;;;;;;;3.28;2.50;;;;;;;10.23;75.85;99432.94;4899170;29;20669;-76
2022/11/05 03:08:55;;;;;;;2.90;2.35;;;;;;;10.20;76.12;99438.38;4902659;29;20332;-76
2022/11/05 03:11:24;;;;;;;3.92;2.60;;;;;;;10.20;76.00;99448.88;4901177;29;20206;-76
2022/11/05 03:14:01;;;;;;;3.78;2.42;;;;;;;10.20;75.92;99448.88;4901641;29;20661;-76
2022/11/05 03:16:41;;;;;;;4.05;2.70;;;;;;;10.23;76.12;99458.34;4899339;29;20702;-76
2022/11/05 03:19:11;;;;;;;3.35;2.50;;;;;;;10.24;76.17;99460.88;4901380;29;20312;-76
2022/11/05 03:21:46;;;;;;;4.80;2.85;;;;;;;10.26;76.06;99463.41;4900587;29;20237;-76
2022/11/05 03:24:18;;;;;;;3.35;2.60;;;;;;;10.26;76.18;99459.00;4901167;29;20206;-77
2022/11/05 03:26:52;;;;;;;2.58;2.38;;;;;;;10.25;75.97;99459.94;4901286;29;20563;-77
2022/11/05 03:29:31;;;;;;;3.10;2.80;;;;;;;10.25;76.60;99457.31;4883500;29;20324;-78
2022/11/05 03:32:00;;;;;;;3.20;2.80;;;;;;;10.25;76.22;99466.97;4902281;29;20305;-79
2022/11/05 03:34:51;;;;;;;4.05;3.33;;;;;;;10.26;76.63;99468.66;4899449;29;20501;-79
2022/11/05 03:37:21;;;;;;;3.67;2.35;;;;;;;10.25;76.92;99473.06;4899805;29;20194;-79
2022/11/05 03:39:51;;;;;;;3.20;2.88;;;;;;;10.20;77.15;99481.22;4882278;29;20640;-79
2022/11/05 03:42:21;;;;;;;2.53;2.33;;;;;;;10.17;77.19;99470.91;4895234;29;20254;-79
2022/11/05 03:44:52;;;;;;;2.83;2.13;;;;;;;10.13;77.40;99479.09;4900957;29;20220;-78
2022/11/05 03:47:24;;;;;;;2.25;1.77;;;;;;;10.14;77.31;99479.00;4902826;29;20216;-78
2022/11/05 03:50:01;;;;;;;2.50;2.30;;;;;;;10.14;77.14;99481.63;4899163;29;20237;-79
2022/11/05 03:52:32;;;;;;;2.95;2.65;;;;;;;10.15;77.34;99493.81;4898856;29;20260;-79
2022/11/05 03:54:58;;;;;;;2.67;2.20;;;;;;;10.17;77.44;99491.09;4902584;29;20679;-79
2022/11/05 03:57:31;;;;;;;2.50;2.20;;;;;;;10.16;77.30;99492.88;4899203;29;20696;-78
2022/11/05 03:59:56;;;;;;;6.18;2.40;;;;;;;10.15;77.50;99504.31;4899337;29;20557;-78
2022/11/05 04:02:24;;;;;;;2.30;2.10;;;;;;;10.16;77.38;99506.00;4901334;29;20285;-78
2022/11/05 04:04:51;;;;;;;2.40;2.13;;;;;;;10.15;77.31;99499.06;4902528;29;20595;-78
2022/11/05 04:15:29;;;;;;;4.72;2.22;;;;;;;10.18;77.69;99504.13;4902096;29;20228;-78
2022/11/05 04:17:57;;;;;;;3.30;2.33;;;;;;;10.20;77.85;99504.84;4900670;29;20632;-79
2022/11/05 04:25:54;;;;;;;4.45;2.10;;;;;;;10.29;77.63;99524.47;4901254;29;20205;-78
2022/11/05 04:28:19;;;;;;;2.83;2.50;;;;;;;10.32;77.53;99521.66;4903494;29;20238;-78
2022/11/05 04:30:44;;;;;;;2.40;1.80;;;;;;;10.34;77.36;99529.41;4899905;29;21179;-77
2022/11/05 04:33:15;;;;;;;3.63;2.50;;;;;;;10.32;77.57;99540.03;4899102;29;20604;-78
2022/11/05 04:35:45;;;;;;;3.13;2.00;;;;;;;10.30;77.80;99539.28;4903227;29;20214;-78
2022/11/05 04:38:17;;;;;;;3.17;2.38;;;;;;;10.30;77.62;99541.06;4900698;29;20229;-78
2022/11/05 04:40:43;;;;;;;3.15;2.50;;;;;;;10.29;77.62;99541.97;4901468;29;20285;-77
2022/11/05 04:43:13;;;;;;;2.45;2.15;;;;;;;10.30;77.69;99543.69;4900692;29;20214;-78
2022/11/05 04:45:39;;;;;;;4.47;2.70;;;;;;;10.30;77.72;99547.16;4899501;29;20217;-78
2022/11/05 04:48:04;;;;;;;3.03;2.30;;;;;;;10.28;77.66;99543.78;4362878;29;10000638;-77
2022/11/05 04:50:31;;;;;;;2.77;2.47;;;;;;;10.25;77.93;99541.31;4971363;23;20248;-79
2022/11/05 04:52:57;;;;;;;5.90;3.22;;;;;;;10.25;77.78;99540.47;4923027;28;20212;-78
2022/11/05 04:55:23;;;;;;;5.32;3.10;;;;;;;10.21;78.20;99545.09;4933307;29;20275;-79
2022/11/05 04:57:50;;;;;;;3.67;3.33;;;;;;;10.19;78.09;99541.72;4938113;28;20724;-78
2022/11/05 05:00:17;;;;;;;4.88;3.10;;;;;;;10.17;78.53;99548.81;4940737;28;20484;-81
2022/11/05 05:02:43;;;;;;;5.97;3.38;;;;;;;10.15;78.52;99553.31;4946814;28;20216;-80
2022/11/05 05:05:09;;;;;;;2.90;2.70;;;;;;;10.15;78.42;99555.94;4941405;28;20207;-81
2022/11/05 05:07:34;;;;;;;5.00;2.50;;;;;;;10.17;78.37;99564.56;4947805;28;20209;-81
2022/11/05 05:10:01;;;;;;;4.70;3.40;;;;;;;10.17;78.28;99549.66;4944739;28;20386;-78
2022/11/05 05:12:27;;;;;;;2.50;2.30;;;;;;;10.18;78.49;99558.41;4943997;28;20220;-78
2022/11/05 05:14:52;;;;;;;2.60;2.40;;;;;;;10.19;78.36;99565.31;4945074;28;20717;-79
2022/11/05 05:17:18;;;;;;;3.10;2.80;;;;;;;10.20;78.18;99565.22;4950207;28;20221;-78
2022/11/05 05:22:28;;;;;;;3.75;2.72;;;;;;;10.25;78.11;99564.09;4948601;28;20606;-81
2022/11/05 05:24:55;;;;;;;3.57;2.90;;;;;;;10.26;78.07;99579.75;4942667;28;20214;-79
2022/11/05 05:27:22;;;;;;;2.58;2.35;;;;;;;10.27;78.16;99575.34;4943465;28;20463;-84
2022/11/05 05:29:47;;;;;;;2.78;2.58;;;;;;;10.30;78.20;99591.78;4945198;28;20250;-82
2022/11/05 05:32:13;;;;;;;3.77;2.70;;;;;;;10.32;77.91;99589.06;4949457;28;20204;-82
2022/11/05 05:34:38;;;;;;;4.40;3.20;;;;;;;10.29;77.96;99595.34;4948745;28;20205;-79
2022/11/05 05:37:03;;;;;;;2.30;2.10;;;;;;;10.31;78.19;99595.25;4948035;28;21271;-82
2022/11/05 05:39:29;;;;;;;3.40;3.00;;;;;;;10.32;78.14;99599.56;4949155;28;20207;-79
2022/11/05 05:41:54;;;;;;;3.03;2.50;;;;;;;10.33;78.16;99607.34;4944057;28;20216;-82
2022/11/05 05:44:20;;;;;;;3.90;2.70;;;;;;;10.35;78.27;99608.09;4961304;28;20220;-83
2022/11/05 05:46:45;;;;;;;4.30;2.73;;;;;;;10.38;77.98;99614.94;4944713;28;20216;-79
2022/11/05 05:49:11;;;;;;;3.93;2.83;;;;;;;10.40;78.09;99613.06;4945387;28;20303;-80
2022/11/05 05:51:36;;;;;;;4.83;3.10;;;;;;;10.45;77.91;99620.63;4958479;28;20252;-84
2022/11/05 05:54:02;;;;;;;2.20;2.00;;;;;;;10.46;77.93;99619.72;4944813;28;20216;-81
2022/11/05 05:56:27;;;;;;;2.50;2.27;;;;;;;10.45;77.85;99616.25;4947183;28;20200;-80
2022/11/05 05:58:53;;;;;;;2.50;2.30;;;;;;;10.42;77.91;99613.78;4946934;28;20242;-82
2022/11/05 06:01:19;;;;;;;3.43;2.47;;;;;;;10.39;77.85;99622.69;4943540;28;20236;-79
2022/11/05 06:03:46;;;;;;;2.90;2.57;;;;;;;10.40;78.11;99623.56;4944139;28;20465;-79
2022/11/05 06:06:12;;;;;;;3.75;2.72;;;;;;;10.39;77.86;99625.31;4944339;28;20464;-82
2022/11/05 06:08:38;;;;;;;2.72;2.53;;;;;;;10.41;78.12;99636.56;4948051;28;20287;-82
2022/11/05 06:11:04;;;;;;;3.70;2.58;;;;;;;10.44;78.03;99630.28;4945400;28;20256;-79
2022/11/05 06:13:30;;;;;;;4.43;3.08;;;;;;;10.44;77.79;99639.97;4944623;28;20382;-82
2022/11/05 06:16:05;;;;;;;3.60;2.67;;;;;;;10.41;77.71;99636.56;4946467;28;20214;-79
2022/11/05 06:18:31;;;;;;;5.57;3.47;;;;;;;10.38;78.05;99642.03;4949164;28;20895;-79
2022/11/05 06:21:01;;;;;;;2.95;2.67;;;;;;;10.39;78.02;99645.50;4947751;28;20219;-81
2022/11/05 06:23:29;;;;;;;2.97;2.65;;;;;;;10.39;77.74;99648.94;4947334;28;20212;-79
2022/11/05 06:25:58;;;;;;;4.07;3.33;;;;;;;10.36;77.97;99646.53;4601790;28;10000567;-82
2022/11/05 06:28:24;;;;;;;4.53;2.60;;;;;;;10.34;77.94;99648.41;4949631;28;20236;-83
2022/11/05 06:30:50;;;;;;;3.80;2.80;;;;;;;10.34;78.11;99652.81;4949709;28;20291;-81
2022/11/05 06:33:16;;;;;;;4.03;2.70;;;;;;;10.34;78.04;99651.03;4946665;28;20200;-80
2022/11/05 06:35:41;;;;;;;4.40;2.60;;;;;;;10.34;78.08;99656.31;4945481;28;21010;-82
2022/11/05 06:38:07;;;;;;;3.20;2.90;;;;;;;10.34;78.05;99664.19;4949603;28;20216;-79
2022/11/05 06:40:32;;;;;;;4.80;4.37;;;;;;;10.36;78.12;99675.41;4944745;28;20305;-79
2022/11/05 06:42:57;;;;;;;6.07;4.60;;;;;;;10.41;78.18;99683.84;4937282;28;20196;-81
2022/11/05 06:45:23;;;;;;;4.30;3.90;;;;;;;10.45;78.09;99688.91;4938582;28;20207;-79
2022/11/05 06:47:54;;;;;;;4.80;3.13;;;;;;;10.46;78.03;99691.44;4941799;28;20263;-79
2022/11/05 06:50:20;;;;;;;5.65;3.00;;;;;;;10.49;78.11;99695.66;4937933;28;20794;-81
2022/11/05 06:52:52;;;;;;;4.87;3.40;;;;;;;10.51;77.73;99699.88;4939268;28;20208;-81
2022/11/05 06:55:18;;;;;;;5.03;3.75;;;;;;;10.54;77.76;99704.94;4943571;28;20216;-80
2022/11/05 06:57:43;;;;;;;5.10;3.60;;;;;;;10.56;77.83;99710.97;4946554;28;20582;-80
2022/11/05 07:00:09;;;;;;;4.27;3.10;;;;;;;10.58;77.88;99705.59;4947700;28;20242;-78
2022/11/05 07:02:35;;;;;;;8.05;4.57;;;;;;;10.58;77.62;99711.69;4943167;28;20215;-79
2022/11/05 07:05:00;;;;;;;7.30;5.70;;;;;;;10.65;78.11;99713.94;4942258;28;20562;-81
2022/11/05 07:07:25;;;;;;;6.13;3.80;;;;;;;10.65;78.04;99714.78;4944246;28;20559;-81
2022/11/05 07:09:51;;;;;;;5.77;4.10;;;;;;;10.65;78.28;99717.41;4944819;28;20256;-79
2022/11/05 07:12:17;;;;;;;4.93;3.15;;;;;;;10.65;78.25;99722.66;4943775;28;20331;-78
2022/11/05 07:14:42;;;;;;;4.27;3.83;;;;;;;10.68;78.07;99727.72;4947648;28;20291;-79
2022/11/05 07:17:07;;;;;;;5.47;4.97;;;;;;;10.68;77.81;99727.72;4945789;28;20223;-78
2022/11/05 07:19:33;;;;;;;4.10;3.77;;;;;;;10.67;77.82;99731.31;4945378;28;20857;-82
2022/11/05 07:21:59;;;;;;;4.77;3.87;;;;;;;10.67;77.70;99736.56;4945039;28;20208;-81
2022/11/05 07:24:24;;;;;;;4.47;3.63;;;;;;;10.68;78.00;99750.53;4945238;28;20217;-80
2022/11/05 07:26:49;;;;;;;5.80;4.30;;;;;;;10.70;77.69;99743.41;4947933;28;20217;-79
2022/11/05 07:29:15;;;;;;;8.40;4.97;;;;;;;10.72;77.72;99750.25;4943962;28;20309;-84
2022/11/05 07:31:40;;;;;;;5.60;4.40;;;;;;;10.74;77.60;99750.97;4950332;28;20214;-83
2022/11/05 07:34:06;;;;;;;4.17;3.43;;;;;;;10.76;77.71;99757.00;4952485;28;20716;-84
2022/11/05 07:36:31;;;;;;;5.23;3.87;;;;;;;10.77;77.56;99763.09;4951980;28;20755;-82
2022/11/05 07:38:56;;;;;;;4.47;3.83;;;;;;;10.78;77.68;99770.06;4951403;28;20578;-85
2022/11/05 07:41:22;;;;;;;4.43;3.70;;;;;;;10.77;77.51;99769.19;4952356;28;20237;-84
2022/11/05 07:43:47;;;;;;;7.00;4.73;;;;;;;10.78;77.58;99773.53;4948802;28;20212;-84
2022/11/05 07:46:13;;;;;;;3.90;3.50;;;;;;;10.80;77.36;99778.66;4953049;28;20263;-85
2022/11/05 07:48:38;;;;;;;8.83;4.37;;;;;;;10.78;77.59;99777.94;4950988;28;20279;-85
2022/11/05 07:51:04;;;;;;;5.50;4.23;;;;;;;10.78;77.63;99783.19;4950568;28;20674;-83
2022/11/05 07:53:29;;;;;;;4.70;3.63;;;;;;;10.79;77.61;99782.25;4949561;28;20209;-83
2022/11/05 07:55:56;;;;;;;4.73;4.33;;;;;;;10.81;77.62;99790.88;4952128;28;20419;-85
2022/11/05 07:58:21;;;;;;;5.35;4.80;;;;;;;10.83;77.62;99795.09;4952079;28;20223;-84
2022/11/05 08:00:46;;;;;;;8.90;5.40;;;;;;;10.85;77.52;99790.59;4954978;28;20220;-84
2022/11/05 08:03:14;;;;;;;4.85;4.32;;;;;;;10.89;77.34;99788.63;4952237;28;20512;-84
2022/11/05 08:05:43;;;;;;;5.15;3.90;;;;;;;10.93;77.37;99791.88;4952382;28;20241;-85
2022/11/05 08:08:10;;;;;;;4.35;3.35;;;;;;;10.97;77.23;99791.63;4950899;28;20208;-84
2022/11/05 08:10:37;;;;;;;4.70;3.40;;;;;;;11.02;77.17;99799.22;4950871;28;20263;-84
2022/11/05 08:13:04;;;;;;;5.70;3.60;;;;;;;11.07;77.08;99797.13;4950501;28;20205;-84
2022/11/05 08:15:36;;;;;;;6.80;4.15;;;;;;;11.11;76.93;99800.44;4949947;28;20287;-84
2022/11/05 08:18:10;;;;;;;5.70;3.80;;;;;;;11.13;76.54;99802.03;4948843;28;20211;-85
2022/11/05 08:20:40;;;;;;;4.53;3.90;;;;;;;11.17;76.54;99803.50;4947930;28;20246;-85
2022/11/05 08:23:06;;;;;;;4.57;4.03;;;;;;;11.17;76.46;99803.50;4957568;28;20284;-85
2022/11/05 08:25:31;;;;;;;5.63;4.23;;;;;;;11.22;76.26;99806.69;4959265;28;20231;-84
2022/11/05 08:27:59;;;;;;;4.23;2.97;;;;;;;11.28;76.20;99805.44;4960673;28;20239;-85
2022/11/05 08:30:25;;;;;;;3.90;3.28;;;;;;;11.32;75.95;99811.38;4953111;28;20240;-84
2022/11/05 08:32:55;;;;;;;3.37;3.00;;;;;;;11.35;75.78;99808.56;4950178;28;20221;-84
2022/11/05 08:35:21;;;;;;;4.15;3.03;;;;;;;11.40;75.53;99809.94;4950050;28;20467;-85
2022/11/05 08:37:46;;;;;;;7.43;3.57;;;;;;;11.43;75.31;99824.69;4949776;28;20315;-85
2022/11/05 08:40:11;;;;;;;3.53;3.23;;;;;;;11.42;75.28;99825.59;4948629;28;20776;-84
2022/11/05 08:42:39;;;;;;;7.50;5.53;;;;;;;11.42;75.13;99828.25;4950760;28;20504;-84
2022/11/05 08:45:06;;;;;;;8.10;5.53;;;;;;;11.42;75.11;99830.88;4960848;28;20219;-85
2022/11/05 08:47:31;;;;;;;4.82;4.32;;;;;;;11.43;75.18;99838.69;4962518;28;20209;-85
2022/11/05 08:49:56;;;;;;;6.90;3.93;;;;;;;11.46;75.05;99832.38;4959247;28;20741;-85
2022/11/05 08:52:22;;;;;;;4.60;3.60;;;;;;;11.46;74.82;99832.38;4970609;28;20220;-84
2022/11/05 08:54:47;;;;;;;6.03;3.90;;;;;;;11.46;74.91;99833.22;4951072;28;20196;-84
2022/11/05 08:57:13;;;;;;;4.83;3.90;;;;;;;11.47;75.15;99836.69;4948858;28;20216;-85
2022/11/05 08:59:38;;;;;;;7.43;5.60;;;;;;;11.46;74.44;99838.47;4948202;28;20224;-85
2022/11/05 09:02:03;;;;;;;5.07;4.37;;;;;;;11.47;74.37;99848.03;4951035;28;20974;-84
2022/11/05 09:04:29;;;;;;;4.47;4.07;;;;;;;11.48;74.41;99841.88;4950912;28;20209;-84
2022/11/05 09:06:57;;;;;;;5.33;4.10;;;;;;;11.50;74.29;99836.47;4953637;28;20224;-85
2022/11/05 09:09:22;;;;;;;4.60;3.05;;;;;;;11.56;74.19;99845.78;4951860;28;20252;-84
2022/11/05 09:11:48;;;;;;;4.30;3.90;;;;;;;11.61;73.93;99843.69;4952700;28;20316;-85
2022/11/05 09:14:13;;;;;;;5.03;4.00;;;;;;;11.64;73.70;99844.34;4951157;28;20227;-84
2022/11/05 09:16:41;;;;;;;3.63;3.27;;;;;;;11.64;73.54;99852.25;4951763;28;20208;-84
2022/11/05 09:19:06;;;;;;;7.95;4.53;;;;;;;11.65;73.37;99847.84;4953211;28;20237;-84
2022/11/05 09:21:33;;;;;;;4.17;3.40;;;;;;;11.69;73.30;99852.81;4952371;28;20454;-85
2022/11/05 09:24:01;;;;;;;4.97;3.92;;;;;;;11.76;73.30;99845.34;4951072;28;20200;-84
2022/11/05 09:26:27;;;;;;;5.85;3.75;;;;;;;11.83;73.03;99848.44;4952842;28;20581;-85
2022/11/05 09:28:52;;;;;;;3.77;3.13;;;;;;;11.89;72.81;99848.91;4953360;28;20330;-85
2022/11/05 09:31:18;;;;;;;4.87;4.17;;;;;;;11.97;72.49;99848.41;4954622;28;20721;-84
2022/11/05 09:33:43;;;;;;;4.30;3.90;;;;;;;12.00;72.21;99850.00;4950714;28;20208;-84
2022/11/05 09:36:09;;;;;;;4.23;3.50;;;;;;;12.00;71.91;99850.84;4951479;28;20217;-84
2022/11/05 09:38:35;;;;;;;5.37;4.40;;;;;;;12.04;72.04;99851.47;4953072;28;20255;-84
2022/11/05 09:41:09;;;;;;;5.97;4.00;;;;;;;12.08;71.75;99853.81;4951244;28;20776;-84
2022/11/05 09:43:57;;;;;;;4.97;3.80;;;;;;;12.09;71.13;99849.38;4949036;28;20267;-85
2022/11/05 09:46:25;;;;;;;6.00;3.90;;;;;;;12.14;71.14;99847.28;4949976;28;20351;-84
2022/11/05 09:49:03;;;;;;;4.38;3.47;;;;;;;12.24;70.68;99853.63;4950426;28;20221;-84
2022/11/05 09:51:29;;;;;;;4.97;3.55;;;;;;;12.35;69.97;99855.56;4953143;28;20248;-83
2022/11/05 09:53:58;;;;;;;5.13;3.65;;;;;;;12.47;69.60;99859.97;4953864;28;20211;-84
2022/11/05 09:56:33;;;;;;;5.20;4.30;;;;;;;12.63;68.81;99858.00;4955013;28;20220;-85
2022/11/05 09:59:14;;;;;;;4.43;3.40;;;;;;;12.78;68.28;99852.63;4943540;28;20509;-85
2022/11/05 10:01:42;;;;;;;6.50;4.63;;;;;;;12.86;67.56;99860.03;4952912;28;20209;-82
2022/11/05 10:04:22;;;;;;;5.32;4.25;;;;;;;12.92;67.21;99862.22;4952727;28;20229;-83
2022/11/05 10:06:55;;;;;;;5.55;4.28;;;;;;;12.98;66.88;99865.28;4953196;28;20221;-85
2022/11/05 10:09:34;;;;;;;6.18;4.10;;;;;;;13.03;66.53;99868.44;4949255;28;20819;-84
2022/11/05 10:12:06;;;;;;;6.82;4.68;;;;;;;13.02;66.45;99866.75;4947876;28;20295;-83
2022/11/05 10:14:55;;;;;;;8.45;4.38;;;;;;;13.04;66.40;99866.63;4941863;28;20196;-83
2022/11/05 10:17:24;;;;;;;7.50;3.97;;;;;;;12.99;66.27;99877.53;4948350;28;20225;-82
2022/11/05 10:19:56;;;;;;;5.78;3.92;;;;;;;12.94;66.17;99884.06;4944469;28;20224;-83
2022/11/05 10:22:23;;;;;;;4.10;3.70;;;;;;;12.87;66.40;99883.63;4949495;28;20326;-83
2022/11/05 10:24:50;;;;;;;5.15;3.88;;;;;;;12.83;66.51;99892.72;4947371;28;20292;-84
2022/11/05 10:27:22;;;;;;;8.02;4.70;;;;;;;12.80;66.64;99890.28;4941844;28;20205;-83
2022/11/05 10:29:49;;;;;;;5.70;4.40;;;;;;;12.76;66.75;99904.63;4945958;28;20239;-84
2022/11/05 10:32:29;;;;;;;4.28;3.55;;;;;;;12.71;67.04;99898.81;4947836;28;20427;-83
2022/11/05 10:35:00;;;;;;;5.20;4.70;;;;;;;12.70;67.30;99897.97;4945469;28;20765;-83
2022/11/05 10:37:26;;;;;;;4.40;3.95;;;;;;;12.69;67.26;99901.56;4944687;28;20232;-84
2022/11/05 10:39:52;;;;;;;16.08;4.93;;;;;;;12.65;67.14;99899.22;4944258;28;20216;-84
2022/11/05 10:42:44;;;;;;;6.85;4.30;;;;;;;12.61;67.30;99899.44;4948075;28;20280;-84
2022/11/05 10:45:21;;;;;;;5.75;4.25;;;;;;;12.56;67.55;99900.69;4945835;28;20229;-85
2022/11/05 10:48:05;;;;;;;5.03;4.43;;;;;;;12.50;67.73;99895.81;4954841;28;20251;-83
2022/11/05 10:50:31;;;;;;;4.68;4.18;;;;;;;12.48;67.58;99900.38;4985438;23;20228;-77
2022/11/05 10:53:09;;;;;;;5.50;3.40;;;;;;;12.45;66.99;99898.78;4903400;29;20214;-77
2022/11/05 10:55:39;;;;;;;4.78;3.70;;;;;;;12.40;67.02;99899.09;4910076;29;20202;-76
2022/11/05 10:58:14;;;;;;;8.32;4.50;;;;;;;12.38;67.18;99897.50;4914805;29;20209;-76
2022/11/05 11:00:42;;;;;;;5.38;4.47;;;;;;;12.38;67.31;99902.75;4910754;29;20869;-76
2022/11/05 11:03:41;;;;;;;5.15;3.85;;;;;;;12.41;67.22;99905.19;4900772;29;20288;-76
2022/11/05 11:06:25;;;;;;;11.80;4.10;;;;;;;12.46;66.95;99899.63;4899270;29;21287;-76
2022/11/05 11:08:54;;;;;;;3.92;3.25;;;;;;;12.50;66.85;99896.69;4900268;29;20253;-76
2022/11/05 11:11:44;;;;;;;5.40;4.20;;;;;;;12.56;66.73;99891.00;4902386;29;20230;-76
2022/11/05 11:14:12;;;;;;;5.45;3.88;;;;;;;12.68;66.07;99896.38;4901442;29;20198;-76
2022/11/05 11:16:46;;;;;;;5.60;3.33;;;;;;;12.74;65.94;99894.16;4903467;29;20404;-76
2022/11/05 11:19:32;;;;;;;4.55;3.88;;;;;;;12.78;65.80;99895.66;4899407;29;20402;-76
2022/11/05 11:22:04;;;;;;;3.72;2.85;;;;;;;12.80;65.27;99903.47;4901960;29;20305;-76
2022/11/05 11:24:36;;;;;;;4.57;3.63;;;;;;;12.79;64.95;99899.13;4900215;29;20224;-76
2022/11/05 11:27:05;;;;;;;4.13;3.60;;;;;;;12.81;64.91;99900.72;4901727;29;20260;-75
2022/11/05 11:29:34;;;;;;;5.53;3.72;;;;;;;12.86;64.49;99894.31;4901196;29;20309;-77
2022/11/05 11:32:01;;;;;;;4.28;3.70;;;;;;;12.84;64.26;99895.22;4901816;29;20229;-75
2022/11/05 11:34:32;;;;;;;4.90;3.63;;;;;;;12.86;64.38;99900.41;4899613;29;20537;-75
2022/11/05 11:37:24;;;;;;;3.65;3.35;;;;;;;12.86;64.20;99899.56;4901120;29;20513;-75
2022/11/05 11:40:18;;;;;;;4.72;3.92;;;;;;;12.84;64.35;99904.94;4897419;29;20277;-75
2022/11/05 11:42:48;;;;;;;7.10;4.40;;;;;;;12.86;64.28;99900.41;4900489;29;20269;-75
2022/11/05 11:45:18;;;;;;;5.95;3.22;;;;;;;12.82;64.18;99901.56;4901770;29;20452;-75
2022/11/05 11:47:45;;;;;;;4.15;3.65;;;;;;;12.78;64.20;99902.72;4900275;29;20209;-75
2022/11/05 11:50:29;;;;;;;4.47;3.30;;;;;;;12.77;63.98;99898.38;4896698;29;20225;-75
2022/11/05 11:52:55;;;;;;;6.07;3.67;;;;;;;12.77;63.94;99906.28;4900558;29;20214;-75
2022/11/05 11:55:21;;;;;;;3.40;2.93;;;;;;;12.80;64.08;99903.47;4899637;29;20667;-75
2022/11/05 11:57:52;;;;;;;7.10;3.05;;;;;;;12.87;63.86;99909.16;4899927;29;20222;-75
2022/11/05 12:00:19;;;;;;;5.60;3.33;;;;;;;12.93;63.91;99904.28;4896958;29;20400;-75
2022/11/05 12:02:47;;;;;;;6.60;4.03;;;;;;;12.97;63.61;99908.41;4897668;29;20210;-76
2022/11/05 12:05:25;;;;;;;2.88;2.58;;;;;;;13.02;63.42;99902.84;4897927;29;20206;-76
2022/11/05 12:08:48;;;;;;;7.28;2.72;;;;;;;13.02;62.97;99906.31;4901633;29;20264;-76
2022/11/05 12:11:28;;;;;;;6.68;2.88;;;;;;;12.98;62.35;99914.53;4876738;29;20254;-76
2022/11/05 12:14:04;;;;;;;6.93;3.47;;;;;;;12.95;62.22;99912.94;4901248;29;20296;-76
2022/11/05 12:17:11;;;;;;;4.53;3.42;;;;;;;13.01;62.21;99896.69;4913525;28;20240;-76
2022/11/05 12:20:09;;;;;;;5.97;2.95;;;;;;;13.14;61.79;99901.13;4895705;29;20213;-76
2022/11/05 12:22:47;;;;;;;5.47;2.95;;;;;;;13.22;61.15;99893.53;4849399;29;20389;-76
2022/11/05 12:25:21;;;;;;;4.78;3.15;;;;;;;13.31;60.99;99890.25;4920579;29;20221;-77
2022/11/05 12:28:19;;;;;;;3.08;2.20;;;;;;;13.40;59.88;99894.06;4920205;29;20221;-76
2022/11/05 12:30:56;;;;;;;2.75;2.40;;;;;;;13.42;59.43;99889.50;4916087;29;20327;-76